createdAt,value
2022-08-05T00:00:50.626Z,28.21
2022-08-05T00:03:52.556Z,27.97
2022-08-05T00:06:54.417Z,27.11
2022-08-05T00:09:57.681Z,27.72
2022-08-05T00:13:00.445Z,27.69
2022-08-05T00:16:02.533Z,27.22
2022-08-05T00:19:04.413Z,27.54
2022-08-05T00:22:06.370Z,27.45
2022-08-05T00:25:08.453Z,27.22
2022-08-05T00:28:15.117Z,27.49
2022-08-05T00:31:54.113Z,27.97
2022-08-05T00:35:04.095Z,28.10
2022-08-05T00:38:09.461Z,27.33
2022-08-05T00:41:11.708Z,27.37
2022-08-05T00:44:13.950Z,27.00
2022-08-05T00:47:16.381Z,26.71
2022-08-05T00:50:18.461Z,26.93
2022-08-05T00:53:45.017Z,26.76
2022-08-05T00:56:51.554Z,26.66
2022-08-05T00:59:53.736Z,26.94
2022-08-05T01:02:56.350Z,27.33
2022-08-05T01:05:58.179Z,27.09
2022-08-05T01:09:00.631Z,26.36
2022-08-05T01:12:18.838Z,26.18
2022-08-05T01:15:36.525Z,26.81
2022-08-05T01:18:41.169Z,27.21
2022-08-05T01:21:50.696Z,26.47
2022-08-05T01:24:52.689Z,26.41
2022-08-05T01:28:04.888Z,26.46
2022-08-05T01:31:22.865Z,25.99
2022-08-05T01:34:31.572Z,26.62
2022-08-05T01:37:44.383Z,26.05
2022-08-05T01:40:46.439Z,26.12
2022-08-05T01:43:51.174Z,25.76
2022-08-05T01:46:54.014Z,26.30
2022-08-05T01:50:01.721Z,26.83
2022-08-05T01:53:05.379Z,26.29
2022-08-05T01:56:09.799Z,26.90
2022-08-05T01:59:12.521Z,25.77
2022-08-05T02:02:16.495Z,26.42
2022-08-05T02:05:18.936Z,26.44
2022-08-05T02:08:30.787Z,26.40
2022-08-05T02:11:42.117Z,26.15
2022-08-05T02:14:57.878Z,26.03
2022-08-05T02:18:31.092Z,25.99
2022-08-05T02:21:29.085Z,26.07
2022-08-05T02:24:41.023Z,25.65
2022-08-05T02:27:58.964Z,25.47
2022-08-05T02:31:07.526Z,25.36
2022-08-05T02:34:11.807Z,25.84
2022-08-05T02:37:13.934Z,25.36
2022-08-05T02:40:19.149Z,26.03
2022-08-05T02:43:21.005Z,25.61
2022-08-05T02:46:27.700Z,26.22
2022-08-05T02:49:41.904Z,26.09
2022-08-05T02:52:45.191Z,26.41
2022-08-05T02:55:55.315Z,26.25
2022-08-05T02:59:02.312Z,25.53
2022-08-05T03:02:04.455Z,24.81
2022-08-05T03:05:07.895Z,25.19
2022-08-05T03:08:10.759Z,24.80
2022-08-05T03:11:54.822Z,24.74
2022-08-05T03:14:46.050Z,25.45
2022-08-05T03:17:48.113Z,25.81
2022-08-05T03:20:56.157Z,25.80
2022-08-05T03:23:59.700Z,24.89
2022-08-05T03:27:01.531Z,25.10
2022-08-05T03:30:08.585Z,25.07
2022-08-05T03:33:10.969Z,24.26
2022-08-05T03:36:12.835Z,24.65
2022-08-05T03:39:20.030Z,25.35
2022-08-05T03:42:32.187Z,24.91
2022-08-05T03:45:58.099Z,24.60
2022-08-05T03:48:56.568Z,24.34
2022-08-05T03:52:37.633Z,24.05
2022-08-05T03:56:04.277Z,24.75
2022-08-05T03:58:47.576Z,24.58
2022-08-05T04:01:53.442Z,24.87
2022-08-05T04:05:01.062Z,25.09
2022-08-05T04:08:05.475Z,24.40
2022-08-05T04:11:08.547Z,24.05
2022-08-05T04:14:11.741Z,24.96
2022-08-05T04:17:20.163Z,25.65
2022-08-05T04:20:23.199Z,25.09
2022-08-05T04:24:05.643Z,24.48
2022-08-05T04:26:47.599Z,24.97
2022-08-05T04:29:49.445Z,25.17
2022-08-05T04:32:51.427Z,25.67
2022-08-05T04:36:10.667Z,26.26
2022-08-05T04:39:15.233Z,25.55
2022-08-05T04:42:17.222Z,26.10
2022-08-05T04:45:22.946Z,25.59
2022-08-05T04:48:40.918Z,25.77
2022-08-05T04:51:44.228Z,27.56
2022-08-05T04:54:46.132Z,27.84
2022-08-05T04:57:54.429Z,27.26
2022-08-05T05:00:56.420Z,27.87
2022-08-05T05:03:58.338Z,27.89
2022-08-05T05:07:01.538Z,28.50
2022-08-05T05:10:05.454Z,29.34
2022-08-05T05:13:15.927Z,30.51
2022-08-05T05:16:19.769Z,28.69
2022-08-05T05:19:23.571Z,30.82
2022-08-05T05:22:29.137Z,29.21
2022-08-05T05:25:32.962Z,30.53
2022-08-05T05:28:45.001Z,30.56
2022-08-05T05:31:47.148Z,32.29
2022-08-05T05:34:49.122Z,32.22
2022-08-05T05:37:59.365Z,31.70
2022-08-05T05:41:02.351Z,30.16
2022-08-05T05:44:04.344Z,30.59
2022-08-05T05:47:30.119Z,32.19
2022-08-05T05:50:32.951Z,32.77
2022-08-05T05:53:46.104Z,33.20
2022-08-05T05:56:58.410Z,32.75
2022-08-05T06:00:00.257Z,33.32
2022-08-05T06:03:03.497Z,33.14
2022-08-05T06:06:27.981Z,33.75
2022-08-05T06:09:52.666Z,35.07
2022-08-05T06:12:55.138Z,32.50
2022-08-05T06:16:30.598Z,33.35
2022-08-05T06:19:33.954Z,32.91
2022-08-05T06:22:37.062Z,32.72
2022-08-05T06:26:12.683Z,35.34
2022-08-05T06:29:24.979Z,33.59
2022-08-05T06:32:29.181Z,34.59
2022-08-05T06:36:03.813Z,34.75
2022-08-05T06:38:54.732Z,33.93
2022-08-05T06:41:59.306Z,35.78
2022-08-05T06:45:05.571Z,33.66
2022-08-05T06:48:36.518Z,35.09
2022-08-05T06:51:32.440Z,34.74
2022-08-05T06:54:34.439Z,34.84
2022-08-05T06:57:57.533Z,33.91
2022-08-05T07:01:00.370Z,34.10
2022-08-05T07:04:03.169Z,35.35
2022-08-05T07:07:07.862Z,37.62
2022-08-05T07:10:10.177Z,36.12
2022-08-05T07:13:56.970Z,37.63
2022-08-05T07:17:58.540Z,36.36
2022-08-05T07:20:39.061Z,36.47
2022-08-05T07:23:49.831Z,36.42
2022-08-05T07:26:54.152Z,37.01
2022-08-05T07:30:22.045Z,36.71
2022-08-05T07:33:36.763Z,39.32
2022-08-05T07:36:39.595Z,37.64
2022-08-05T07:40:26.179Z,40.37
2022-08-05T07:43:07.378Z,37.46
2022-08-05T07:46:25.557Z,39.74
2022-08-05T07:49:27.851Z,36.13
2022-08-05T07:52:30.567Z,37.57
2022-08-05T07:55:44.300Z,37.86
2022-08-05T07:58:59.281Z,36.61
2022-08-05T08:02:03.201Z,39.77
2022-08-05T08:05:05.531Z,40.57
2022-08-05T08:08:07.411Z,41.08
2022-08-05T08:11:16.072Z,39.96
2022-08-05T08:14:19.007Z,38.37
2022-08-05T08:17:21.711Z,39.28
2022-08-05T08:20:59.805Z,40.72
2022-08-05T08:24:01.353Z,39.21
2022-08-05T08:27:06.924Z,39.42
2022-08-05T08:30:29.613Z,39.72
2022-08-05T08:33:37.842Z,38.85
2022-08-05T08:36:47.717Z,39.10
2022-08-05T08:39:56.939Z,37.73
2022-08-05T08:45:16.283Z,39.97
2022-08-05T08:46:21.020Z,39.74
2022-08-05T08:50:23.197Z,39.40
2022-08-05T08:52:51.847Z,40.75
2022-08-05T08:56:02.630Z,41.73
2022-08-05T08:59:14.911Z,40.09
2022-08-05T09:02:22.021Z,42.51
2022-08-05T09:05:38.837Z,42.31
2022-08-05T09:08:50.414Z,41.50
2022-08-05T09:11:55.298Z,40.89
2022-08-05T09:15:06.614Z,40.70
2022-08-05T09:18:09.472Z,41.40
2022-08-05T09:21:20.497Z,40.84
2022-08-05T09:24:24.182Z,40.16
2022-08-05T09:28:04.536Z,39.60
2022-08-05T09:30:56.693Z,41.32
2022-08-05T09:34:03.023Z,41.21
2022-08-05T09:37:04.948Z,42.98
2022-08-05T09:40:53.619Z,41.55
2022-08-05T09:43:55.937Z,43.44
2022-08-05T09:47:15.426Z,42.85
2022-08-05T09:50:38.790Z,41.08
2022-08-05T09:53:54.327Z,40.10
2022-08-05T09:57:01.181Z,42.37
2022-08-05T10:00:18.431Z,45.09
2022-08-05T10:03:21.637Z,42.29
2022-08-05T10:06:23.532Z,43.78
2022-08-05T10:09:29.301Z,45.53
2022-08-05T10:12:34.042Z,44.65
2022-08-05T10:15:36.994Z,44.54
2022-08-05T10:18:44.337Z,43.39
2022-08-05T10:21:50.477Z,45.08
2022-08-05T10:24:52.858Z,43.84
2022-08-05T10:28:09.341Z,44.89
2022-08-05T10:32:48.445Z,42.62
2022-08-05T10:34:37.464Z,45.58
2022-08-05T10:37:44.886Z,46.43
2022-08-05T10:40:58.171Z,45.99
2022-08-05T10:44:05.943Z,44.82
2022-08-05T10:47:25.919Z,43.96
2022-08-05T10:50:36.298Z,43.73
2022-08-05T10:53:55.596Z,42.21
2022-08-05T10:56:57.571Z,40.77
2022-08-05T11:00:20.742Z,40.38
2022-08-05T11:03:27.114Z,40.75
2022-08-05T11:06:30.753Z,41.37
2022-08-05T11:10:03.742Z,41.21
2022-08-05T11:13:22.006Z,42.13
2022-08-05T11:16:33.926Z,43.17
2022-08-05T11:20:10.048Z,44.56
2022-08-05T11:24:02.244Z,45.49
2022-08-05T11:26:51.234Z,47.54
2022-08-05T11:29:59.462Z,43.83
2022-08-05T11:33:21.477Z,45.47
2022-08-05T11:36:42.027Z,44.97
2022-08-05T11:39:50.327Z,44.24
2022-08-05T11:43:02.824Z,47.97
2022-08-05T11:46:15.671Z,48.38
2022-08-05T11:49:27.039Z,48.78
2022-08-05T11:52:31.035Z,46.43
2022-08-05T11:55:36.451Z,46.71
2022-08-05T11:58:42.639Z,45.84
2022-08-05T12:02:23.957Z,47.01
2022-08-05T12:05:36.223Z,47.97
2022-08-05T12:08:47.941Z,49.70
2022-08-05T12:11:53.549Z,48.58
2022-08-05T12:14:55.651Z,46.87
2022-08-05T12:18:10.071Z,45.62
2022-08-05T12:21:24.020Z,44.13
2022-08-05T12:24:26.183Z,46.60
2022-08-05T12:27:32.840Z,49.13
2022-08-05T12:30:37.611Z,45.93
2022-08-05T12:33:48.175Z,45.51
2022-08-05T12:36:50.965Z,46.37
2022-08-05T12:39:53.977Z,43.97
2022-08-05T12:42:55.992Z,41.39
2022-08-05T12:45:57.934Z,41.98
2022-08-05T12:49:13.823Z,42.85
2022-08-05T12:52:23.977Z,41.08
2022-08-05T12:55:33.040Z,39.50
2022-08-05T12:58:39.847Z,39.14
2022-08-05T13:02:07.439Z,38.93
2022-08-05T13:05:11.189Z,40.19
2022-08-05T13:08:17.439Z,40.08
2022-08-05T13:11:46.968Z,39.66
2022-08-05T13:14:45.478Z,39.20
2022-08-05T13:18:01.134Z,38.54
2022-08-05T13:21:03.130Z,38.03
2022-08-05T13:24:08.942Z,38.00
2022-08-05T13:27:11.338Z,39.21
2022-08-05T13:30:33.513Z,39.09
2022-08-05T13:34:21.306Z,38.57
2022-08-05T13:37:00.305Z,38.65
2022-08-05T13:40:13.445Z,38.83
2022-08-05T13:43:22.045Z,38.87
2022-08-05T13:47:01.587Z,37.51
2022-08-05T13:49:46.682Z,38.21
2022-08-05T13:52:50.729Z,38.54
2022-08-05T13:55:58.846Z,38.06
2022-08-05T13:59:05.978Z,38.98
2022-08-05T14:02:26.398Z,37.55
2022-08-05T14:05:48.046Z,38.71
2022-08-05T14:08:50.671Z,38.43
2022-08-05T14:12:04.137Z,38.57
2022-08-05T14:16:04.718Z,38.57
2022-08-05T14:18:38.360Z,38.62
2022-08-05T14:22:10.056Z,37.31
2022-08-05T14:25:02.799Z,38.25
2022-08-05T14:28:15.879Z,37.64
2022-08-05T14:32:02.979Z,37.32
2022-08-05T14:34:50.420Z,37.79
2022-08-05T14:37:55.468Z,37.94
2022-08-05T14:40:57.553Z,38.27
2022-08-05T14:44:09.652Z,37.10
2022-08-05T14:48:04.006Z,37.44
2022-08-05T14:50:43.352Z,37.75
2022-08-05T14:53:45.716Z,36.87
2022-08-05T14:57:09.725Z,37.08
2022-08-05T15:00:15.739Z,37.22
2022-08-05T15:03:22.873Z,37.70
2022-08-05T15:06:27.892Z,38.30
2022-08-05T15:09:51.737Z,38.46
2022-08-05T15:13:01.004Z,38.18
2022-08-05T15:16:06.218Z,37.99
2022-08-05T15:19:08.579Z,37.69
2022-08-05T15:22:27.309Z,37.96
2022-08-05T15:25:52.932Z,38.71
2022-08-05T15:28:52.154Z,38.50
2022-08-05T15:31:54.073Z,38.51
2022-08-05T15:34:56.693Z,37.37
2022-08-05T15:38:33.704Z,37.83
2022-08-05T15:41:24.202Z,37.75
2022-08-05T15:44:27.520Z,37.62
2022-08-05T15:47:29.715Z,37.48
2022-08-05T15:50:34.087Z,37.07
2022-08-05T15:53:50.872Z,36.83
2022-08-05T15:56:53.450Z,36.50
2022-08-05T15:59:57.642Z,37.30
2022-08-05T16:03:00.025Z,38.06
2022-08-05T16:06:02.345Z,37.72
2022-08-05T16:09:04.439Z,37.32
2022-08-05T16:12:06.548Z,36.80
2022-08-05T16:15:09.481Z,37.22
2022-08-05T16:18:12.362Z,37.28
2022-08-05T16:21:16.491Z,37.67
2022-08-05T16:24:40.503Z,36.99
2022-08-05T16:27:47.095Z,37.36
2022-08-05T16:31:02.937Z,37.39
2022-08-05T16:34:05.707Z,36.49
2022-08-05T16:38:01.885Z,36.40
2022-08-05T16:40:33.431Z,37.52
2022-08-05T16:43:35.418Z,37.05
2022-08-05T16:46:40.939Z,37.63
2022-08-05T16:49:43.189Z,37.48
2022-08-05T16:52:46.011Z,37.23
2022-08-05T16:55:48.131Z,37.51
2022-08-05T16:58:50.165Z,37.23
2022-08-05T17:01:54.275Z,37.99
2022-08-05T17:04:57.714Z,37.84
2022-08-05T17:07:59.668Z,37.85
2022-08-05T17:11:02.286Z,36.94
2022-08-05T17:14:05.704Z,37.27
2022-08-05T17:17:14.305Z,37.45
2022-08-05T17:20:17.153Z,37.74
2022-08-05T17:24:03.383Z,37.57
2022-08-05T17:26:41.086Z,37.16
2022-08-05T17:29:42.963Z,36.71
2022-08-05T17:32:44.917Z,36.88
2022-08-05T17:36:08.082Z,37.07
2022-08-05T17:39:24.182Z,37.22
2022-08-05T17:42:32.469Z,37.03
2022-08-05T17:45:38.181Z,36.89
2022-08-05T17:48:43.237Z,36.29
2022-08-05T17:51:47.758Z,36.73
2022-08-05T17:54:52.389Z,36.90
2022-08-05T17:57:54.515Z,36.33
2022-08-05T18:00:57.059Z,36.64
2022-08-05T18:04:04.494Z,36.35
2022-08-05T18:07:07.929Z,35.66
2022-08-05T18:10:21.100Z,36.16
2022-08-05T18:13:23.378Z,35.81
2022-08-05T18:16:27.715Z,35.17
2022-08-05T18:19:29.965Z,34.92
2022-08-05T18:22:45.913Z,34.54
2022-08-05T18:25:57.769Z,34.41
2022-08-05T18:29:01.418Z,34.52
2022-08-05T18:32:03.330Z,34.35
2022-08-05T18:35:05.623Z,34.47
2022-08-05T18:38:08.013Z,34.24
2022-08-05T18:41:56.462Z,34.41
2022-08-05T18:44:35.424Z,34.61
2022-08-05T18:47:56.788Z,34.11
2022-08-05T18:52:05.827Z,33.74
2022-08-05T18:54:41.407Z,33.46
2022-08-05T18:57:52.625Z,33.29
2022-08-05T19:00:55.432Z,33.61
2022-08-05T19:03:57.322Z,33.18
2022-08-05T19:06:59.277Z,33.69
2022-08-05T19:10:05.274Z,33.87
2022-08-05T19:13:15.738Z,33.70
2022-08-05T19:16:25.046Z,33.34
2022-08-05T19:19:30.669Z,33.82
2022-08-05T19:22:32.788Z,33.06
2022-08-05T19:25:42.036Z,33.31
2022-08-05T19:28:45.657Z,32.70
2022-08-05T19:31:50.813Z,33.11
2022-08-05T19:34:54.693Z,33.07
2022-08-05T19:38:06.852Z,32.80
2022-08-05T19:41:10.576Z,32.85
2022-08-05T19:44:13.663Z,32.19
2022-08-05T19:47:16.589Z,31.77
2022-08-05T19:50:20.042Z,32.22
2022-08-05T19:54:03.649Z,32.11
2022-08-05T19:56:44.346Z,31.81
2022-08-05T20:00:00.993Z,31.59
2022-08-05T20:03:08.627Z,32.36
2022-08-05T20:06:15.350Z,31.97
2022-08-05T20:09:17.962Z,32.47
2022-08-05T20:12:19.909Z,32.84
2022-08-05T20:15:48.757Z,32.82
2022-08-05T20:18:43.695Z,32.31
2022-08-05T20:21:46.891Z,32.48
2022-08-05T20:24:48.749Z,32.08
2022-08-05T20:27:50.933Z,31.73
2022-08-05T20:30:52.948Z,31.22
2022-08-05T20:33:54.822Z,30.52
2022-08-05T20:36:57.657Z,31.14
2022-08-05T20:39:59.605Z,31.77
2022-08-05T20:43:04.111Z,31.01
2022-08-05T20:46:06.856Z,31.86
2022-08-05T20:49:08.721Z,32.24
2022-08-05T20:52:12.323Z,31.99
2022-08-05T20:55:55.713Z,32.00
2022-08-05T20:58:36.946Z,32.32
2022-08-05T21:01:39.206Z,32.15
2022-08-05T21:04:41.312Z,31.23
2022-08-05T21:07:51.991Z,30.99
2022-08-05T21:10:54.182Z,31.43
2022-08-05T21:14:00.288Z,31.93
2022-08-05T21:17:05.873Z,31.12
2022-08-05T21:20:10.194Z,31.16
2022-08-05T21:23:12.917Z,31.24
2022-08-05T21:26:16.006Z,30.56
2022-08-05T21:29:18.069Z,30.60
2022-08-05T21:32:20.376Z,30.70
2022-08-05T21:35:29.730Z,31.19
2022-08-05T21:38:32.087Z,31.01
2022-08-05T21:41:35.650Z,30.49
2022-08-05T21:44:37.707Z,30.53
2022-08-05T21:47:57.164Z,30.24
2022-08-05T21:50:59.951Z,30.58
2022-08-05T21:54:03.854Z,30.22
2022-08-05T21:57:29.512Z,30.26
2022-08-05T22:00:27.899Z,30.11
2022-08-05T22:03:48.686Z,30.12
2022-08-05T22:06:51.859Z,30.53
2022-08-05T22:09:54.132Z,29.96
2022-08-05T22:13:58.822Z,29.84
2022-08-05T22:16:42.165Z,29.85
2022-08-05T22:20:01.418Z,29.69
2022-08-05T22:23:23.322Z,29.40
2022-08-05T22:26:49.746Z,29.96
2022-08-05T22:29:54.279Z,29.16
2022-08-05T22:32:56.265Z,29.36
2022-08-05T22:36:00.002Z,29.21
2022-08-05T22:39:04.296Z,29.68
2022-08-05T22:42:15.375Z,29.26
2022-08-05T22:45:27.155Z,28.54
2022-08-05T22:48:32.718Z,28.41
2022-08-05T22:52:06.060Z,29.07
2022-08-05T22:54:56.509Z,28.41
2022-08-05T22:57:58.339Z,28.47
2022-08-05T23:01:00.459Z,28.48
2022-08-05T23:04:02.384Z,29.21
2022-08-05T23:07:04.314Z,29.03
2022-08-05T23:10:09.082Z,28.77
2022-08-05T23:13:11.068Z,28.33
2022-08-05T23:16:12.911Z,28.29
2022-08-05T23:19:27.960Z,28.10
2022-08-05T23:22:30.844Z,28.06
2022-08-05T23:25:53.303Z,27.82
2022-08-05T23:28:55.019Z,28.92
2022-08-05T23:31:56.865Z,29.35
2022-08-05T23:34:59.083Z,29.07
2022-08-05T23:38:01.082Z,28.85
2022-08-05T23:41:02.943Z,28.74
2022-08-05T23:44:08.802Z,28.73
2022-08-05T23:47:15.219Z,28.18
2022-08-05T23:50:20.192Z,28.29
2022-08-05T23:53:23.226Z,28.33
2022-08-05T23:56:30.182Z,28.37
